createdAt,value
2023-03-23T15:58:37.882Z,4.57
2023-03-23T16:01:09.632Z,1.92
2023-03-23T16:03:43.627Z,4.97
2023-03-23T16:06:25.338Z,2.42
2023-03-23T16:08:58.049Z,3.22
2023-03-23T16:11:31.477Z,5.28
2023-03-23T16:14:02.143Z,2.65
2023-03-23T16:16:36.106Z,5.43
2023-03-23T16:19:06.533Z,2.65
2023-03-23T16:21:35.918Z,5.80
2023-03-23T16:24:07.958Z,3.03
2023-03-23T16:26:37.537Z,3.58
2023-03-23T16:29:23.876Z,3.10
2023-03-23T16:31:53.590Z,4.70
2023-03-23T16:34:23.314Z,2.75
2023-03-23T16:36:52.735Z,6.95
2023-03-23T16:39:23.916Z,3.20
2023-03-23T16:44:22.508Z,4.65
2023-03-23T16:46:51.853Z,5.25
2023-03-23T16:49:22.062Z,4.00
2023-03-23T16:51:51.519Z,4.20
2023-03-23T16:54:22.629Z,4.97
2023-03-23T16:56:52.278Z,9.45
2023-03-23T16:59:22.069Z,2.23
2023-03-23T17:01:51.442Z,2.90
2023-03-23T17:04:21.230Z,5.43
2023-03-23T17:06:51.958Z,4.28
2023-03-23T17:11:52.463Z,2.35
2023-03-23T17:14:24.432Z,9.17
2023-03-23T17:16:53.725Z,6.68
2023-03-23T17:19:23.915Z,4.28
2023-03-23T17:21:53.347Z,4.10
2023-03-23T17:24:24.638Z,7.40
2023-03-23T17:29:24.042Z,3.72
2023-03-23T17:31:53.767Z,9.07
2023-03-23T17:34:23.441Z,9.03
2023-03-23T17:36:53.032Z,4.85
2023-03-23T17:39:24.405Z,4.77
2023-03-23T17:41:53.789Z,4.78
2023-03-23T17:44:23.978Z,5.95
2023-03-23T17:46:53.513Z,4.53
2023-03-23T17:49:24.083Z,4.93
2023-03-23T17:51:53.533Z,6.10
2023-03-23T17:54:25.873Z,5.68
2023-03-23T17:56:55.562Z,8.02
2023-03-23T17:59:25.656Z,5.68
2023-03-23T18:01:55.563Z,5.30
2023-03-23T18:04:27.434Z,9.23
2023-03-23T18:06:58.629Z,9.68
2023-03-23T18:09:29.853Z,6.15
2023-03-23T18:11:59.863Z,5.38
2023-03-23T18:14:29.682Z,6.57
2023-03-23T18:16:59.809Z,7.13
2023-03-23T18:19:30.386Z,5.43
2023-03-23T18:21:59.749Z,6.47
2023-03-23T18:24:31.217Z,5.40
2023-03-23T18:27:02.482Z,6.05
2023-03-23T18:29:32.507Z,7.75
2023-03-23T18:32:01.874Z,8.70
2023-03-23T18:34:32.511Z,7.57
2023-03-23T18:41:00.581Z,14.27
2023-03-23T18:43:30.064Z,12.38
2023-03-23T18:51:19.968Z,10.00
2023-03-23T18:58:23.268Z,11.30
2023-03-23T19:00:57.860Z,11.57
2023-03-23T19:03:27.709Z,12.68
2023-03-23T19:06:00.744Z,10.30
2023-03-23T19:08:30.585Z,12.32
2023-03-23T19:11:02.064Z,13.23
2023-03-23T19:13:37.080Z,14.27
2023-03-23T19:16:08.498Z,14.27
2023-03-23T19:18:38.095Z,14.40
2023-03-23T19:21:14.610Z,10.55
2023-03-23T19:23:44.789Z,13.93
2023-03-23T19:26:23.468Z,13.00
2023-03-23T19:29:24.389Z,11.55
2023-03-23T19:31:46.165Z,12.80
2023-03-23T19:34:17.056Z,10.75
2023-03-23T19:36:54.330Z,10.20
2023-03-23T19:39:25.505Z,11.50
2023-03-23T19:41:56.278Z,9.25
2023-03-23T19:44:28.674Z,20.17
2023-03-23T19:46:59.012Z,11.00
2023-03-23T19:49:28.873Z,7.50
2023-03-23T19:52:08.945Z,9.25
2023-03-23T19:54:40.916Z,9.93
2023-03-23T19:57:12.294Z,7.70
2023-03-23T19:59:43.312Z,9.38
2023-03-23T20:02:13.821Z,7.63
2023-03-23T20:04:45.433Z,4.55
2023-03-23T20:07:15.656Z,3.13
2023-03-23T20:09:45.091Z,6.63
2023-03-23T20:12:15.035Z,7.37
2023-03-23T20:14:45.793Z,4.03
2023-03-23T20:17:16.057Z,5.05
2023-03-23T20:19:45.272Z,6.18
2023-03-23T20:22:15.781Z,5.45
2023-03-23T20:24:47.407Z,3.72
2023-03-23T20:27:19.077Z,6.60
2023-03-23T20:29:49.772Z,4.90
2023-03-23T20:32:19.430Z,6.22
2023-03-23T20:34:49.923Z,4.15
2023-03-23T20:37:21.017Z,2.90
2023-03-23T20:39:50.243Z,6.28
2023-03-23T20:42:19.862Z,5.50
2023-03-23T20:44:50.530Z,5.07
2023-03-23T20:47:20.725Z,6.38
2023-03-23T20:49:53.012Z,3.72
2023-03-23T20:52:26.152Z,4.00
2023-03-23T20:54:56.376Z,3.83
2023-03-23T20:57:26.194Z,7.47
2023-03-23T20:59:57.174Z,6.03
2023-03-23T21:02:30.255Z,4.57
2023-03-23T21:05:04.486Z,4.68
2023-03-23T21:07:34.195Z,7.95
2023-03-23T21:10:03.526Z,5.72
2023-03-23T21:12:33.348Z,3.78
2023-03-23T21:15:04.066Z,9.35
2023-03-23T21:17:34.349Z,5.85
2023-03-23T21:20:08.001Z,7.60
2023-03-23T21:22:37.783Z,8.18
2023-03-23T21:25:10.345Z,10.15
2023-03-23T21:27:40.015Z,5.45
2023-03-23T21:30:12.126Z,4.68
2023-03-23T21:32:41.823Z,7.40
2023-03-23T21:35:11.159Z,5.30
2023-03-23T21:37:41.575Z,5.78
2023-03-23T21:40:17.137Z,9.00
2023-03-23T21:42:49.329Z,6.05
2023-03-23T21:45:21.306Z,4.60
2023-03-23T21:47:58.091Z,8.65
2023-03-23T21:50:27.447Z,7.70
2023-03-23T21:52:57.093Z,7.40
2023-03-23T21:55:30.154Z,5.28
2023-03-23T21:57:59.792Z,3.83
2023-03-23T22:00:30.632Z,6.22
2023-03-23T22:03:00.663Z,5.65
2023-03-23T22:05:30.834Z,5.63
2023-03-23T22:08:00.589Z,5.50
2023-03-23T22:10:30.226Z,4.07
2023-03-23T22:13:00.213Z,4.37
2023-03-23T22:15:31.205Z,4.05
2023-03-23T22:18:01.084Z,5.45
2023-03-23T22:20:31.286Z,9.15
2023-03-23T22:25:31.094Z,6.25
2023-03-23T22:28:00.830Z,2.47
2023-03-23T22:30:33.392Z,5.50
2023-03-23T22:33:03.587Z,5.43
2023-03-23T22:35:34.061Z,7.15
2023-03-23T22:38:04.587Z,3.95
2023-03-23T22:40:34.204Z,2.90
2023-03-23T22:43:04.694Z,4.07
2023-03-23T22:45:36.131Z,6.18
2023-03-23T22:48:08.260Z,4.68
2023-03-23T22:50:37.567Z,3.97
2023-03-23T22:53:07.583Z,7.70
2023-03-23T22:55:36.853Z,4.15
2023-03-23T22:58:07.024Z,3.95
2023-03-23T23:00:39.851Z,3.58
2023-03-23T23:03:09.502Z,6.63
2023-03-23T23:05:43.151Z,3.08
2023-03-23T23:08:15.271Z,2.85
2023-03-23T23:10:49.717Z,8.23
2023-03-23T23:13:20.298Z,4.50
2023-03-23T23:15:54.128Z,2.92
2023-03-23T23:18:25.330Z,4.80
2023-03-23T23:20:57.020Z,2.58
2023-03-23T23:23:27.875Z,4.05
2023-03-23T23:25:58.821Z,7.22
2023-03-23T23:28:29.019Z,5.25
2023-03-23T23:30:59.924Z,3.15
2023-03-23T23:33:30.232Z,3.47
2023-03-23T23:35:59.785Z,7.10
2023-03-23T23:38:30.515Z,3.83
2023-03-23T23:41:00.153Z,10.55
2023-03-23T23:43:30.111Z,4.77
2023-03-23T23:46:01.289Z,5.90
2023-03-23T23:48:31.191Z,4.35
2023-03-23T23:51:00.689Z,4.35
2023-03-23T23:53:32.107Z,5.13
2023-03-23T23:58:33.249Z,5.35
